Time;durP1;ratioP1;P1;durP2;ratioP2;P2;SDS_P1;SDS_P2;PMS_P1;PMS_P2;Temp;Humidity;BMP_temperature;BMP_pressure;BME280_temperature;BME280_humidity;BME280_pressure;Samples;Min_cycle;Max_cycle;Signal;HPM_P1;HPM_P2
2022/08/22 00:02:31;;;;;;;3.08;1.30;;;;;;;;;;5114330;27;20557;-80
2022/08/22 00:05:29;;;;;;;4.78;1.23;;;;;;;;;;5080773;27;20035;-79
2022/08/22 00:08:46;;;;;;;3.60;1.48;;;;;;;;;;5100893;27;20049;-79
2022/08/22 00:11:37;;;;;;;6.97;1.90;;;;;;;;;;5035117;28;20029;-79
2022/08/22 00:14:22;;;;;;;5.03;1.75;;;;;;;;;;5066178;28;20562;-79
2022/08/22 00:17:13;;;;;;;3.60;1.27;;;;;;;;;;5107678;27;20046;-79
2022/08/22 00:20:05;;;;;;;2.95;1.20;;;;;;;;;;5135036;27;20042;-79
2022/08/22 00:22:43;;;;;;;2.60;1.05;;;;;;;;;;5101535;27;20365;-79
2022/08/22 00:25:17;;;;;;;4.13;1.40;;;;;;;;;;5118102;27;20042;-80
2022/08/22 00:27:52;;;;;;;3.55;1.40;;;;;;;;;;5153275;27;20034;-79
2022/08/22 00:30:18;;;;;;;3.50;1.33;;;;;;;;;;5117617;27;20035;-79
2022/08/22 00:32:47;;;;;;;4.13;1.33;;;;;;;;;;5083917;27;20166;-79
2022/08/22 00:35:31;;;;;;;3.67;1.25;;;;;;;;;;5101508;27;20062;-80
2022/08/22 00:38:07;;;;;;;4.95;1.35;;;;;;;;;;5117523;27;20027;-79
2022/08/22 00:40:57;;;;;;;3.17;1.10;;;;;;;;;;5117244;27;20038;-79
2022/08/22 00:43:44;;;;;;;3.22;1.10;;;;;;;;;;5117413;27;20027;-79
2022/08/22 00:46:40;;;;;;;3.28;0.82;;;;;;;;;;5134218;27;20042;-79
2022/08/22 00:49:37;;;;;;;3.28;1.15;;;;;;;;;;5117409;27;20035;-79
2022/08/22 00:52:24;;;;;;;4.32;1.35;;;;;;;;;;5134512;27;20030;-79
2022/08/22 00:54:57;;;;;;;4.15;0.93;;;;;;;;;;5116692;27;20613;-80
2022/08/22 00:57:44;;;;;;;3.05;1.38;;;;;;;;;;5100437;27;20440;-80
2022/08/22 01:00:16;;;;;;;2.53;1.33;;;;;;;;;;5134637;27;20027;-79
2022/08/22 01:02:58;;;;;;;4.03;1.40;;;;;;;;;;5103449;27;20042;-80
2022/08/22 01:05:38;;;;;;;3.13;1.35;;;;;;;;;;5121540;27;20031;-79
2022/08/22 01:08:23;;;;;;;3.30;1.00;;;;;;;;;;5137923;27;20098;-80
2022/08/22 01:11:19;;;;;;;2.60;0.98;;;;;;;;;;5120777;27;20030;-80
2022/08/22 01:14:23;;;;;;;3.50;1.00;;;;;;;;;;5156802;27;20030;-79
2022/08/22 01:16:54;;;;;;;2.45;1.00;;;;;;;;;;5118753;27;20117;-80
2022/08/22 01:19:52;;;;;;;3.15;1.10;;;;;;;;;;5100830;27;20046;-79
2022/08/22 01:22:47;;;;;;;2.15;1.00;;;;;;;;;;5061298;27;20114;-80
2022/08/22 01:25:46;;;;;;;2.50;1.00;;;;;;;;;;5100605;27;20051;-79
2022/08/22 01:28:37;;;;;;;3.65;1.02;;;;;;;;;;5102727;27;20038;-80
2022/08/22 01:31:27;;;;;;;2.97;1.23;;;;;;;;;;5103580;27;20064;-79
2022/08/22 01:34:04;;;;;;;4.40;1.33;;;;;;;;;;5117368;27;20042;-80
2022/08/22 01:36:48;;;;;;;4.88;1.67;;;;;;;;;;5083085;27;20062;-79
2022/08/22 01:39:34;;;;;;;2.80;1.02;;;;;;;;;;5100145;27;20031;-79
2022/08/22 01:42:02;;;;;;;4.25;1.33;;;;;;;;;;5067248;27;20027;-79
2022/08/22 01:44:38;;;;;;;3.40;1.15;;;;;;;;;;5099796;27;20076;-80
2022/08/22 01:47:38;;;;;;;3.15;0.88;;;;;;;;;;5117094;27;20047;-80
2022/08/22 01:50:22;;;;;;;4.28;1.60;;;;;;;;;;5102339;27;20520;-80
2022/08/22 01:53:15;;;;;;;2.35;0.93;;;;;;;;;;5099076;27;20042;-80
2022/08/22 01:55:59;;;;;;;3.42;1.35;;;;;;;;;;5095289;27;20462;-80
2022/08/22 01:58:26;;;;;;;2.63;1.00;;;;;;;;;;5116381;27;20043;-80
2022/08/22 02:01:04;;;;;;;3.05;1.20;;;;;;;;;;5082680;27;20027;-80
2022/08/22 02:03:32;;;;;;;3.60;1.60;;;;;;;;;;5083827;27;20042;-79
2022/08/22 02:06:06;;;;;;;4.65;1.10;;;;;;;;;;5082996;27;20118;-79
2022/08/22 02:08:58;;;;;;;4.60;1.45;;;;;;;;;;5082941;27;20035;-79
2022/08/22 02:11:37;;;;;;;3.45;1.05;;;;;;;;;;5100351;27;20035;-80
2022/08/22 02:14:20;;;;;;;3.70;1.05;;;;;;;;;;5115803;27;20035;-80
2022/08/22 02:16:49;;;;;;;2.58;1.15;;;;;;;;;;5085964;27;20047;-80
2022/08/22 02:19:14;;;;;;;3.63;1.35;;;;;;;;;;5103485;27;20118;-80
2022/08/22 02:22:27;;;;;;;2.40;1.20;;;;;;;;;;5119866;27;20179;-80
2022/08/22 02:24:59;;;;;;;3.60;1.58;;;;;;;;;;5034064;28;20051;-80
2022/08/22 02:27:46;;;;;;;3.67;1.02;;;;;;;;;;5106463;27;20103;-80
2022/08/22 02:30:21;;;;;;;4.25;1.23;;;;;;;;;;5104484;27;20086;-79
2022/08/22 02:33:01;;;;;;;2.95;1.23;;;;;;;;;;5087021;27;20027;-80
2022/08/22 02:35:37;;;;;;;4.78;1.23;;;;;;;;;;5103316;27;20031;-79
2022/08/22 02:38:20;;;;;;;2.72;1.20;;;;;;;;;;5085654;27;20401;-79
2022/08/22 02:40:59;;;;;;;2.83;1.30;;;;;;;;;;5136541;27;20122;-79
2022/08/22 02:43:35;;;;;;;2.95;1.23;;;;;;;;;;5136550;27;20035;-80
2022/08/22 02:46:14;;;;;;;4.13;1.50;;;;;;;;;;5086571;27;20033;-79
2022/08/22 02:48:46;;;;;;;3.75;1.40;;;;;;;;;;5119688;27;20026;-80
2022/08/22 02:51:34;;;;;;;3.28;1.40;;;;;;;;;;5102462;27;20039;-80
2022/08/22 02:54:13;;;;;;;3.45;1.20;;;;;;;;;;5155000;27;20062;-79
2022/08/22 02:57:00;;;;;;;4.28;1.25;;;;;;;;;;5085747;27;20038;-80
2022/08/22 02:59:25;;;;;;;2.90;0.95;;;;;;;;;;5114415;27;20130;-80
2022/08/22 03:01:51;;;;;;;3.08;1.13;;;;;;;;;;5115529;27;20126;-80
2022/08/22 03:04:44;;;;;;;3.08;1.02;;;;;;;;;;5081386;27;20023;-80
2022/08/22 03:07:19;;;;;;;4.03;1.20;;;;;;;;;;5115262;27;20031;-80
2022/08/22 03:09:56;;;;;;;3.15;1.00;;;;;;;;;;5115170;27;20035;-80
2022/08/22 03:12:38;;;;;;;2.75;1.27;;;;;;;;;;5098375;27;20067;-80
2022/08/22 03:15:25;;;;;;;4.63;1.10;;;;;;;;;;5132525;27;20031;-80
2022/08/22 03:17:55;;;;;;;2.80;1.20;;;;;;;;;;5105568;27;20066;-80
2022/08/22 03:20:46;;;;;;;5.20;1.80;;;;;;;;;;5114916;27;20084;-80
2022/08/22 03:23:33;;;;;;;3.22;1.10;;;;;;;;;;5115439;27;20095;-80
2022/08/22 03:26:21;;;;;;;3.83;1.45;;;;;;;;;;5114072;27;20497;-79
2022/08/22 03:28:50;;;;;;;2.25;1.20;;;;;;;;;;5114942;27;20031;-80
2022/08/22 03:31:17;;;;;;;4.70;1.20;;;;;;;;;;5081441;27;20046;-80
2022/08/22 03:33:44;;;;;;;3.25;1.20;;;;;;;;;;5098196;27;20119;-79
2022/08/22 03:36:15;;;;;;;4.70;1.48;;;;;;;;;;5098629;27;20035;-79
2022/08/22 03:38:53;;;;;;;2.10;1.10;;;;;;;;;;5133010;27;20505;-79
2022/08/22 03:41:38;;;;;;;3.38;1.48;;;;;;;;;;5099178;27;20643;-79
2022/08/22 03:44:06;;;;;;;2.92;1.30;;;;;;;;;;5114789;27;20039;-82
2022/08/22 03:46:35;;;;;;;3.70;1.40;;;;;;;;;;5131953;27;20031;-81
2022/08/22 03:49:38;;;;;;;3.13;1.05;;;;;;;;;;5131657;27;20109;-81
2022/08/22 03:52:10;;;;;;;3.75;1.08;;;;;;;;;;5076332;27;20505;-82
2022/08/22 03:55:01;;;;;;;3.30;1.10;;;;;;;;;;5117434;27;20493;-82
2022/08/22 03:57:35;;;;;;;3.60;1.40;;;;;;;;;;5103355;27;20038;-81
2022/08/22 04:00:22;;;;;;;2.40;1.00;;;;;;;;;;5101189;27;20038;-81
2022/08/22 04:03:24;;;;;;;2.60;1.10;;;;;;;;;;5120422;27;20047;-82
2022/08/22 04:05:55;;;;;;;4.05;1.35;;;;;;;;;;5104253;27;20034;-82
2022/08/22 04:08:27;;;;;;;3.25;1.60;;;;;;;;;;5117621;27;20035;-82
2022/08/22 04:11:02;;;;;;;3.75;1.27;;;;;;;;;;5117592;27;20503;-81
2022/08/22 04:13:46;;;;;;;2.42;1.10;;;;;;;;;;5117883;27;20062;-81
2022/08/22 04:16:25;;;;;;;4.03;1.42;;;;;;;;;;5134479;27;20533;-81
2022/08/22 04:18:50;;;;;;;3.20;1.15;;;;;;;;;;5115499;27;20039;-82
2022/08/22 04:21:44;;;;;;;5.10;1.38;;;;;;;;;;5097337;27;20046;-82
2022/08/22 04:24:09;;;;;;;2.85;1.27;;;;;;;;;;5082301;27;20069;-82
2022/08/22 04:26:49;;;;;;;3.13;1.13;;;;;;;;;;5114265;28;20040;-82
2022/08/22 04:29:22;;;;;;;3.22;1.30;;;;;;;;;;5080742;27;20038;-82
2022/08/22 04:32:12;;;;;;;4.55;1.58;;;;;;;;;;5080880;28;20024;-82
2022/08/22 04:34:46;;;;;;;2.70;1.20;;;;;;;;;;5082248;28;20504;-82
2022/08/22 04:37:24;;;;;;;3.63;1.15;;;;;;;;;;5080452;28;20445;-80
2022/08/22 04:39:54;;;;;;;3.47;1.20;;;;;;;;;;5081870;28;20046;-82
2022/08/22 04:42:26;;;;;;;5.85;1.27;;;;;;;;;;5080019;28;20031;-81
2022/08/22 04:45:02;;;;;;;;;;;;;;;;;;5097441;28;20027;-81
2022/08/22 04:47:37;;;;;;;2.47;1.00;;;;;;;;;;5085690;28;20349;-81
2022/08/22 04:50:27;;;;;;;4.68;1.67;;;;;;;;;;5080673;28;20042;-79
2022/08/22 04:53:27;;;;;;;3.55;1.52;;;;;;;;;;5113516;28;20068;-81
2022/08/22 04:56:14;;;;;;;2.88;1.17;;;;;;;;;;5113984;28;20485;-80
2022/08/22 04:58:47;;;;;;;3.45;1.35;;;;;;;;;;5096832;28;20039;-80
2022/08/22 05:01:16;;;;;;;4.82;1.40;;;;;;;;;;5113523;28;20027;-80
2022/08/22 05:03:56;;;;;;;5.32;1.40;;;;;;;;;;5096765;28;20031;-80
2022/08/22 05:06:23;;;;;;;3.40;1.50;;;;;;;;;;5096776;28;20061;-80
2022/08/22 05:08:49;;;;;;;3.00;1.00;;;;;;;;;;5096712;28;20501;-79
2022/08/22 05:11:17;;;;;;;3.60;1.42;;;;;;;;;;5095710;28;20039;-79
2022/08/22 05:13:46;;;;;;;6.10;1.58;;;;;;;;;;5077448;28;20031;-79
2022/08/22 05:16:18;;;;;;;4.70;1.48;;;;;;;;;;5094361;28;20110;-79
2022/08/22 05:18:48;;;;;;;;;;;;;;;;;;5095793;27;20042;-79
2022/08/22 05:21:13;;;;;;;3.15;0.80;;;;;;;;;;5113517;28;19914;-80
2022/08/22 05:23:47;;;;;;;6.43;1.75;;;;;;;;;;5096039;28;20035;-80
2022/08/22 05:26:12;;;;;;;2.83;1.05;;;;;;;;;;5080207;27;20033;-81
2022/08/22 05:28:41;;;;;;;4.60;1.42;;;;;;;;;;5082374;27;20030;-80
2022/08/22 05:31:10;;;;;;;4.50;1.40;;;;;;;;;;5097807;27;20047;-81
2022/08/22 05:33:42;;;;;;;5.30;1.40;;;;;;;;;;5116916;27;20523;-80
2022/08/22 05:36:27;;;;;;;7.20;1.73;;;;;;;;;;5117109;27;20040;-80
2022/08/22 05:38:55;;;;;;;17.02;2.45;;;;;;;;;;5116827;27;20035;-80
2022/08/22 05:41:23;;;;;;;11.23;1.83;;;;;;;;;;5099703;27;20085;-80
2022/08/22 05:43:49;;;;;;;9.18;1.77;;;;;;;;;;5116577;27;20034;-81
2022/08/22 05:46:31;;;;;;;9.00;2.20;;;;;;;;;;5100040;27;20031;-80
2022/08/22 05:48:58;;;;;;;9.95;3.53;;;;;;;;;;5120364;27;20130;-80
2022/08/22 05:51:49;;;;;;;7.55;3.65;;;;;;;;;;5120989;27;20035;-80
2022/08/22 05:54:20;;;;;;;9.90;4.05;;;;;;;;;;5108116;27;20042;-79
2022/08/22 05:56:50;;;;;;;8.07;3.28;;;;;;;;;;5082958;27;20474;-80
2022/08/22 05:59:28;;;;;;;7.72;2.97;;;;;;;;;;5091948;27;20038;-81
2022/08/22 06:01:58;;;;;;;10.68;5.45;;;;;;;;;;5103292;27;20040;-80
2022/08/22 06:04:47;;;;;;;12.45;7.20;;;;;;;;;;5104868;27;20450;-81
2022/08/22 06:07:25;;;;;;;10.02;6.35;;;;;;;;;;5105685;27;20050;-83
2022/08/22 06:10:15;;;;;;;7.90;3.42;;;;;;;;;;5103221;27;20034;-83
2022/08/22 06:12:55;;;;;;;5.50;2.60;;;;;;;;;;5116040;27;20031;-85
2022/08/22 06:15:40;;;;;;;12.50;7.45;;;;;;;;;;5117260;27;20026;-84
2022/08/22 06:18:09;;;;;;;13.40;7.68;;;;;;;;;;5104428;27;20059;-83
2022/08/22 06:20:44;;;;;;;11.75;5.82;;;;;;;;;;5120374;27;20406;-83
2022/08/22 06:23:13;;;;;;;7.78;4.15;;;;;;;;;;5136578;27;20035;-81
2022/08/22 06:25:39;;;;;;;6.72;3.90;;;;;;;;;;5102194;27;20462;-82
2022/08/22 06:28:08;;;;;;;6.68;2.97;;;;;;;;;;5085588;27;20026;-82
2022/08/22 06:30:34;;;;;;;9.98;2.55;;;;;;;;;;5102704;27;20031;-81
2022/08/22 06:33:03;;;;;;;9.00;2.72;;;;;;;;;;5098348;27;20122;-83
2022/08/22 06:38:27;;;;;;;8.43;2.50;;;;;;;;;;5121588;27;20075;-81
2022/08/22 06:40:53;;;;;;;7.45;2.70;;;;;;;;;;5101394;27;20038;-81
2022/08/22 06:43:19;;;;;;;10.68;2.30;;;;;;;;;;5119659;27;20043;-81
2022/08/22 06:45:44;;;;;;;6.55;1.98;;;;;;;;;;5102789;27;20022;-81
2022/08/22 06:48:18;;;;;;;6.32;2.55;;;;;;;;;;5085060;27;20099;-80
2022/08/22 06:50:44;;;;;;;7.20;2.55;;;;;;;;;;5101843;27;20088;-81
2022/08/22 06:53:19;;;;;;;8.27;2.95;;;;;;;;;;5118875;27;20042;-81
2022/08/22 06:55:55;;;;;;;6.72;2.10;;;;;;;;;;5101651;27;20027;-82
2022/08/22 06:58:22;;;;;;;6.00;1.70;;;;;;;;;;5084463;27;20469;-81
2022/08/22 07:00:52;;;;;;;6.20;2.30;;;;;;;;;;5118775;27;20039;-81
2022/08/22 07:03:32;;;;;;;5.78;1.92;;;;;;;;;;5119572;27;20110;-81
2022/08/22 07:05:57;;;;;;;5.18;1.73;;;;;;;;;;5102159;27;20485;-81
2022/08/22 07:08:23;;;;;;;6.72;2.20;;;;;;;;;;5118533;27;20099;-81
2022/08/22 07:11:04;;;;;;;2.95;1.38;;;;;;;;;;5118070;27;20034;-81
2022/08/22 07:13:29;;;;;;;6.15;1.73;;;;;;;;;;5118541;27;20030;-81
2022/08/22 07:15:56;;;;;;;4.95;1.92;;;;;;;;;;5080838;27;20019;-81
2022/08/22 07:18:24;;;;;;;6.40;2.30;;;;;;;;;;5081363;27;20504;-82
2022/08/22 07:20:53;;;;;;;4.32;1.48;;;;;;;;;;5081240;27;20485;-81
2022/08/22 07:23:31;;;;;;;6.40;1.88;;;;;;;;;;5114792;27;20034;-81
2022/08/22 07:26:31;;;;;;;5.00;1.80;;;;;;;;;;5097893;27;20036;-81
2022/08/22 07:28:56;;;;;;;5.57;1.27;;;;;;;;;;5072698;27;20047;-81
2022/08/22 07:31:22;;;;;;;7.10;1.85;;;;;;;;;;5114856;27;20497;-81
2022/08/22 07:33:49;;;;;;;4.95;1.60;;;;;;;;;;5114837;27;20043;-82
2022/08/22 07:36:24;;;;;;;5.65;2.00;;;;;;;;;;5114775;27;20041;-81
2022/08/22 07:39:17;;;;;;;5.78;1.45;;;;;;;;;;5097609;27;20508;-81
2022/08/22 07:41:53;;;;;;;4.57;1.77;;;;;;;;;;5097845;27;20501;-81
2022/08/22 07:44:24;;;;;;;6.78;2.05;;;;;;;;;;5098886;27;20126;-81
2022/08/22 07:46:59;;;;;;;4.85;1.70;;;;;;;;;;5115117;27;20031;-81
2022/08/22 07:49:37;;;;;;;5.90;2.22;;;;;;;;;;5081339;27;20039;-80
2022/08/22 07:52:06;;;;;;;5.13;2.17;;;;;;;;;;5114072;27;20514;-80
2022/08/22 07:54:40;;;;;;;5.65;1.67;;;;;;;;;;5114406;27;20035;-81
2022/08/22 07:57:45;;;;;;;3.83;1.48;;;;;;;;;;5081034;27;20035;-80
2022/08/22 08:00:15;;;;;;;6.05;2.53;;;;;;;;;;5098272;28;20432;-80
2022/08/22 08:03:05;;;;;;;6.47;3.38;;;;;;;;;;5059592;28;20055;-81
2022/08/22 08:05:35;;;;;;;8.80;4.97;;;;;;;;;;5068245;27;20136;-80
2022/08/22 08:08:04;;;;;;;11.40;5.90;;;;;;;;;;5097037;27;20031;-81
2022/08/22 08:10:33;;;;;;;8.38;4.47;;;;;;;;;;5080648;27;20047;-80
2022/08/22 08:13:06;;;;;;;8.30;4.35;;;;;;;;;;5080736;27;20031;-81
2022/08/22 08:15:33;;;;;;;7.28;3.90;;;;;;;;;;5129386;27;20027;-81
2022/08/22 08:18:02;;;;;;;10.05;4.65;;;;;;;;;;5100775;27;20037;-80
2022/08/22 08:20:28;;;;;;;7.32;4.60;;;;;;;;;;5101559;27;20023;-81
2022/08/22 08:22:54;;;;;;;7.30;3.10;;;;;;;;;;5100427;27;20038;-81
2022/08/22 08:25:25;;;;;;;9.15;3.30;;;;;;;;;;5101000;27;20041;-81
2022/08/22 08:30:42;;;;;;;7.40;4.03;;;;;;;;;;5119957;27;20023;-81
2022/08/22 08:33:07;;;;;;;6.45;3.20;;;;;;;;;;5100577;27;20501;-80
2022/08/22 08:35:38;;;;;;;4.72;2.47;;;;;;;;;;5100879;27;20031;-81
2022/08/22 08:38:19;;;;;;;7.57;3.15;;;;;;;;;;5100114;27;20492;-81
2022/08/22 08:41:23;;;;;;;6.25;3.10;;;;;;;;;;5083933;27;20033;-81
2022/08/22 08:44:36;;;;;;;6.88;3.25;;;;;;;;;;5117316;27;20467;-81
2022/08/22 08:47:26;;;;;;;6.63;2.72;;;;;;;;;;5027813;27;20072;-81
2022/08/22 08:50:12;;;;;;;6.47;2.88;;;;;;;;;;5118039;27;20046;-81
2022/08/22 08:52:53;;;;;;;6.95;3.92;;;;;;;;;;5100090;27;20512;-81
2022/08/22 08:55:37;;;;;;;14.30;6.72;;;;;;;;;;5117406;27;20458;-80
2022/08/22 08:58:05;;;;;;;14.75;8.38;;;;;;;;;;5134369;27;20030;-80
2022/08/22 09:01:15;;;;;;;11.15;5.47;;;;;;;;;;5134638;27;20035;-80
2022/08/22 09:04:18;;;;;;;10.65;5.68;;;;;;;;;;5072155;28;20135;-80
2022/08/22 09:07:11;;;;;;;10.73;5.18;;;;;;;;;;5071524;28;20036;-81
2022/08/22 09:09:49;;;;;;;12.43;5.85;;;;;;;;;;5113774;27;20404;-81
2022/08/22 09:12:31;;;;;;;8.95;5.05;;;;;;;;;;5133936;27;20133;-80
2022/08/22 09:15:15;;;;;;;8.77;4.80;;;;;;;;;;5117277;27;20034;-81
2022/08/22 09:18:18;;;;;;;8.93;4.75;;;;;;;;;;5116960;27;20041;-81
2022/08/22 09:21:05;;;;;;;8.63;4.68;;;;;;;;;;5116768;27;20034;-81
2022/08/22 09:23:55;;;;;;;9.85;5.00;;;;;;;;;;5117823;27;20092;-80
2022/08/22 09:26:46;;;;;;;9.07;4.63;;;;;;;;;;5104000;27;20114;-81
2022/08/22 09:29:34;;;;;;;8.73;4.30;;;;;;;;;;5104896;27;20035;-80
2022/08/22 09:32:18;;;;;;;8.70;3.78;;;;;;;;;;5137965;27;20035;-81
2022/08/22 09:35:06;;;;;;;10.73;5.28;;;;;;;;;;5104123;27;20057;-80
2022/08/22 09:38:05;;;;;;;8.30;3.67;;;;;;;;;;5120310;27;20019;-81
2022/08/22 09:40:34;;;;;;;7.85;4.13;;;;;;;;;;5121032;27;20039;-81
2022/08/22 09:43:04;;;;;;;7.18;3.53;;;;;;;;;;5103861;27;20069;-80
2022/08/22 09:45:47;;;;;;;9.88;3.88;;;;;;;;;;5104029;27;20042;-80
2022/08/22 09:48:28;;;;;;;7.55;3.55;;;;;;;;;;5104521;27;20022;-81
2022/08/22 09:50:54;;;;;;;6.43;3.40;;;;;;;;;;5137348;27;20113;-80
2022/08/22 09:53:39;;;;;;;9.43;3.58;;;;;;;;;;5120111;27;20034;-80
2022/08/22 09:56:15;;;;;;;5.20;2.70;;;;;;;;;;5120135;27;20038;-80
2022/08/22 09:59:02;;;;;;;10.90;3.15;;;;;;;;;;5087140;27;20030;-80
2022/08/22 10:01:32;;;;;;;7.45;3.13;;;;;;;;;;5137484;27;20481;-80
2022/08/22 10:04:22;;;;;;;8.88;3.88;;;;;;;;;;5102273;27;20035;-80
2022/08/22 10:07:13;;;;;;;7.00;3.90;;;;;;;;;;5103256;27;20053;-81
2022/08/22 10:09:50;;;;;;;9.32;5.30;;;;;;;;;;5101437;27;20027;-81
2022/08/22 10:12:22;;;;;;;10.00;6.00;;;;;;;;;;5135487;27;20071;-81
2022/08/22 10:15:15;;;;;;;11.27;5.90;;;;;;;;;;5084963;27;20045;-81
2022/08/22 10:17:57;;;;;;;10.40;6.43;;;;;;;;;;5118187;27;20412;-80
2022/08/22 10:20:28;;;;;;;15.10;7.35;;;;;;;;;;5103139;27;20079;-81
2022/08/22 10:22:56;;;;;;;11.32;6.30;;;;;;;;;;5101320;27;20038;-81
2022/08/22 10:25:37;;;;;;;11.73;7.05;;;;;;;;;;5119647;27;20031;-80
2022/08/22 10:28:15;;;;;;;13.13;7.57;;;;;;;;;;5119086;27;20039;-80
2022/08/22 10:31:18;;;;;;;12.20;7.13;;;;;;;;;;5119622;27;20031;-81
2022/08/22 10:34:10;;;;;;;10.95;6.80;;;;;;;;;;5102168;27;20046;-81
2022/08/22 10:36:39;;;;;;;10.95;5.68;;;;;;;;;;5102425;27;20492;-82
2022/08/22 10:39:06;;;;;;;11.15;6.15;;;;;;;;;;5155342;27;20051;-82
2022/08/22 10:41:37;;;;;;;8.90;5.03;;;;;;;;;;5103085;27;20039;-82
2022/08/22 10:44:14;;;;;;;8.88;5.32;;;;;;;;;;5136768;27;20161;-82
2022/08/22 10:46:59;;;;;;;10.68;5.40;;;;;;;;;;5119637;27;20066;-81
2022/08/22 10:49:33;;;;;;;9.35;4.78;;;;;;;;;;5102220;27;20521;-81
2022/08/22 10:52:06;;;;;;;12.75;5.28;;;;;;;;;;5085230;27;20449;-82
2022/08/22 10:54:47;;;;;;;7.70;4.20;;;;;;;;;;5085336;27;20038;-82
2022/08/22 10:57:36;;;;;;;9.23;4.60;;;;;;;;;;5120045;27;20096;-81
2022/08/22 11:00:10;;;;;;;6.40;3.88;;;;;;;;;;5102702;27;20035;-82
2022/08/22 11:03:01;;;;;;;13.85;4.90;;;;;;;;;;5135918;27;20037;-82
2022/08/22 11:05:26;;;;;;;7.25;3.33;;;;;;;;;;5136258;27;20034;-81
2022/08/22 11:08:26;;;;;;;9.60;3.88;;;;;;;;;;5118378;27;20031;-81
2022/08/22 11:11:05;;;;;;;11.68;3.75;;;;;;;;;;5118649;27;20026;-81
2022/08/22 11:13:39;;;;;;;6.22;3.20;;;;;;;;;;5102108;27;20026;-81
2022/08/22 11:16:26;;;;;;;7.63;3.30;;;;;;;;;;5117039;27;20037;-81
2022/08/22 11:19:17;;;;;;;13.13;3.88;;;;;;;;;;5118294;27;20463;-81
2022/08/22 11:21:44;;;;;;;7.93;3.47;;;;;;;;;;5117936;27;20027;-81
2022/08/22 11:24:40;;;;;;;7.93;3.20;;;;;;;;;;5118397;27;20043;-81
2022/08/22 11:27:30;;;;;;;6.30;2.38;;;;;;;;;;5118256;27;20027;-81
2022/08/22 11:30:12;;;;;;;7.60;2.92;;;;;;;;;;5118352;27;20177;-81
2022/08/22 11:32:59;;;;;;;6.97;2.70;;;;;;;;;;5118273;27;20046;-81
2022/08/22 11:35:38;;;;;;;4.45;1.85;;;;;;;;;;5135339;27;20047;-81
2022/08/22 11:38:20;;;;;;;4.65;2.20;;;;;;;;;;5101862;27;20034;-81
2022/08/22 11:41:03;;;;;;;6.47;2.42;;;;;;;;;;5103124;27;20041;-81
2022/08/22 11:44:16;;;;;;;5.95;2.15;;;;;;;;;;5102418;27;20506;-81
2022/08/22 11:46:44;;;;;;;4.68;2.25;;;;;;;;;;5015349;28;20040;-82
2022/08/22 11:49:18;;;;;;;7.45;2.10;;;;;;;;;;5016756;28;20068;-81
2022/08/22 11:52:06;;;;;;;5.63;2.00;;;;;;;;;;5087004;27;20412;-81
2022/08/22 11:54:53;;;;;;;6.05;2.08;;;;;;;;;;5102349;27;20035;-81
2022/08/22 11:57:23;;;;;;;5.32;2.60;;;;;;;;;;5117871;27;20099;-81
2022/08/22 12:00:13;;;;;;;3.22;1.65;;;;;;;;;;5101344;27;20496;-82
2022/08/22 12:02:48;;;;;;;4.45;1.73;;;;;;;;;;5118556;27;20042;-81
2022/08/22 12:05:29;;;;;;;3.83;1.45;;;;;;;;;;5100932;27;20060;-81
2022/08/22 12:08:00;;;;;;;3.47;2.00;;;;;;;;;;5083914;27;20041;-82
2022/08/22 12:10:32;;;;;;;4.20;1.70;;;;;;;;;;5117671;27;20367;-81
2022/08/22 12:13:02;;;;;;;5.80;1.60;;;;;;;;;;5084042;27;20030;-81
2022/08/22 12:15:41;;;;;;;5.10;2.03;;;;;;;;;;5101113;27;20053;-82
2022/08/22 12:18:13;;;;;;;3.88;1.55;;;;;;;;;;5134918;27;20038;-81
2022/08/22 12:21:08;;;;;;;4.32;1.73;;;;;;;;;;5117830;27;20034;-81
2022/08/22 12:23:39;;;;;;;3.40;1.52;;;;;;;;;;5085482;27;20041;-82
2022/08/22 12:26:26;;;;;;;3.05;1.35;;;;;;;;;;5153034;27;20033;-82
2022/08/22 12:29:00;;;;;;;3.35;1.65;;;;;;;;;;5117059;27;20037;-81
2022/08/22 12:31:25;;;;;;;3.38;1.60;;;;;;;;;;5134695;27;20442;-82
2022/08/22 12:34:03;;;;;;;4.75;1.30;;;;;;;;;;5134992;27;20488;-82
2022/08/22 12:36:47;;;;;;;5.45;1.85;;;;;;;;;;5152823;27;20045;-82
2022/08/22 12:39:31;;;;;;;3.42;1.48;;;;;;;;;;5117557;27;20058;-81
2022/08/22 12:42:09;;;;;;;3.03;1.13;;;;;;;;;;5117222;27;20031;-82
2022/08/22 12:44:50;;;;;;;3.63;1.05;;;;;;;;;;5118184;27;20038;-82
2022/08/22 12:47:36;;;;;;;3.13;1.50;;;;;;;;;;5101516;27;20031;-82
2022/08/22 12:50:11;;;;;;;2.75;1.13;;;;;;;;;;5084246;27;20027;-82
2022/08/22 12:52:43;;;;;;;3.85;1.30;;;;;;;;;;5117046;27;20042;-81
2022/08/22 12:55:15;;;;;;;2.80;1.15;;;;;;;;;;5100539;27;20049;-82
2022/08/22 12:57:57;;;;;;;3.10;1.20;;;;;;;;;;5136040;27;20045;-81
2022/08/22 13:00:35;;;;;;;3.53;1.20;;;;;;;;;;5122540;27;20035;-81
2022/08/22 13:03:06;;;;;;;2.45;1.00;;;;;;;;;;5121529;27;20489;-81
2022/08/22 13:05:32;;;;;;;3.93;1.30;;;;;;;;;;5105091;27;20019;-82
2022/08/22 13:07:59;;;;;;;3.90;1.30;;;;;;;;;;5087570;27;20035;-81
2022/08/22 13:10:34;;;;;;;2.97;1.38;;;;;;;;;;5087359;27;20130;-81
2022/08/22 13:12:59;;;;;;;4.07;1.30;;;;;;;;;;5138338;27;20531;-81
2022/08/22 13:15:28;;;;;;;2.67;0.93;;;;;;;;;;5103971;27;20030;-82
2022/08/22 13:17:54;;;;;;;1.80;1.08;;;;;;;;;;5121152;27;20523;-82
2022/08/22 13:20:27;;;;;;;3.80;1.30;;;;;;;;;;5087326;27;20122;-81
2022/08/22 13:22:53;;;;;;;2.50;1.20;;;;;;;;;;5104787;27;20023;-82
2022/08/22 13:25:26;;;;;;;3.03;1.15;;;;;;;;;;5120900;27;20461;-82
2022/08/22 13:27:56;;;;;;;4.80;1.35;;;;;;;;;;5103463;27;20061;-81
2022/08/22 13:30:29;;;;;;;3.03;1.00;;;;;;;;;;5104211;27;20039;-81
2022/08/22 13:33:00;;;;;;;2.88;1.25;;;;;;;;;;5104507;27;20034;-81
2022/08/22 13:35:31;;;;;;;3.33;1.50;;;;;;;;;;5104243;27;20536;-82
2022/08/22 13:38:01;;;;;;;2.80;1.35;;;;;;;;;;5087032;27;20030;-81
2022/08/22 13:40:28;;;;;;;2.30;0.85;;;;;;;;;;5087289;27;20038;-82
2022/08/22 13:43:10;;;;;;;1.95;1.00;;;;;;;;;;5086662;27;20023;-82
2022/08/22 13:45:36;;;;;;;;;;;;;;;;;;5089174;27;20038;-81
2022/08/22 13:48:09;;;;;;;2.83;1.02;;;;;;;;;;5121096;27;19914;-81
2022/08/22 13:50:38;;;;;;;1.80;1.00;;;;;;;;;;5087380;27;20030;-81
2022/08/22 13:53:12;;;;;;;2.22;1.20;;;;;;;;;;5103895;27;20035;-81
2022/08/22 13:55:44;;;;;;;2.38;0.95;;;;;;;;;;5104152;27;20045;-82
2022/08/22 13:58:25;;;;;;;2.03;1.05;;;;;;;;;;5103268;27;20041;-81
2022/08/22 14:01:09;;;;;;;2.17;1.02;;;;;;;;;;5120895;27;20031;-81
2022/08/22 14:03:44;;;;;;;2.00;0.93;;;;;;;;;;5156038;27;20050;-81
2022/08/22 14:06:20;;;;;;;2.00;0.93;;;;;;;;;;5103550;27;20091;-82
2022/08/22 14:08:46;;;;;;;1.83;1.05;;;;;;;;;;5119411;27;20039;-81
2022/08/22 14:11:30;;;;;;;2.53;1.08;;;;;;;;;;5103160;27;20472;-81
2022/08/22 14:14:01;;;;;;;2.03;0.85;;;;;;;;;;5122280;27;20463;-81
2022/08/22 14:16:39;;;;;;;2.50;1.02;;;;;;;;;;5086663;27;20030;-81
2022/08/22 14:19:07;;;;;;;1.83;0.88;;;;;;;;;;5120402;27;20103;-82
2022/08/22 14:21:46;;;;;;;1.92;1.00;;;;;;;;;;5103335;27;20034;-81
2022/08/22 14:24:16;;;;;;;1.92;0.68;;;;;;;;;;5086068;27;20071;-81
2022/08/22 14:26:52;;;;;;;2.22;1.30;;;;;;;;;;5119985;27;20122;-82
2022/08/22 14:29:18;;;;;;;1.17;0.70;;;;;;;;;;5086363;27;20027;-81
2022/08/22 14:31:58;;;;;;;2.63;1.13;;;;;;;;;;5085947;27;20396;-82
2022/08/22 14:34:23;;;;;;;1.90;1.10;;;;;;;;;;5085880;27;20038;-82
2022/08/22 14:37:00;;;;;;;2.60;1.30;;;;;;;;;;5102998;27;20038;-82
2022/08/22 14:39:35;;;;;;;2.63;0.85;;;;;;;;;;5085790;27;20417;-82
2022/08/22 14:42:06;;;;;;;3.03;1.20;;;;;;;;;;5086349;27;20034;-81
2022/08/22 14:44:46;;;;;;;3.00;0.88;;;;;;;;;;5102666;27;20031;-81
2022/08/22 14:47:27;;;;;;;2.45;0.85;;;;;;;;;;5103048;27;20026;-81
2022/08/22 14:49:55;;;;;;;2.47;1.00;;;;;;;;;;5119439;27;20026;-82
2022/08/22 14:52:38;;;;;;;2.13;0.82;;;;;;;;;;5085605;27;20433;-81
2022/08/22 14:55:29;;;;;;;2.15;0.70;;;;;;;;;;5101770;27;20031;-82
2022/08/22 14:57:58;;;;;;;2.73;1.13;;;;;;;;;;5135044;27;20512;-82
2022/08/22 15:00:30;;;;;;;2.38;1.00;;;;;;;;;;5101959;27;20272;-81
2022/08/22 15:03:23;;;;;;;1.77;0.98;;;;;;;;;;5103154;27;20034;-82
2022/08/22 15:06:00;;;;;;;1.67;0.82;;;;;;;;;;5138890;27;20031;-81
2022/08/22 15:08:31;;;;;;;1.98;0.85;;;;;;;;;;5102495;27;20034;-82
2022/08/22 15:11:07;;;;;;;1.45;0.77;;;;;;;;;;5119668;27;20045;-82
2022/08/22 15:13:32;;;;;;;1.48;0.65;;;;;;;;;;5102038;27;20041;-82
2022/08/22 15:15:58;;;;;;;1.55;0.60;;;;;;;;;;5102106;27;20034;-82
2022/08/22 15:18:26;;;;;;;1.52;0.88;;;;;;;;;;5118739;27;20466;-82
2022/08/22 15:21:12;;;;;;;1.20;0.70;;;;;;;;;;5135691;27;20113;-82
2022/08/22 15:23:41;;;;;;;2.15;0.82;;;;;;;;;;5118282;27;20038;-82
2022/08/22 15:26:08;;;;;;;2.22;1.10;;;;;;;;;;5084677;27;20344;-82
2022/08/22 15:28:35;;;;;;;1.77;0.80;;;;;;;;;;5101529;27;20057;-82
2022/08/22 15:31:09;;;;;;;1.75;0.82;;;;;;;;;;5102161;27;20549;-83
2022/08/22 15:33:44;;;;;;;2.47;1.10;;;;;;;;;;5118877;27;20118;-82
2022/08/22 15:36:10;;;;;;;2.40;0.82;;;;;;;;;;5084948;27;20113;-81
2022/08/22 15:38:46;;;;;;;1.58;0.60;;;;;;;;;;5153726;27;20541;-82
2022/08/22 15:41:21;;;;;;;1.83;0.52;;;;;;;;;;5103108;27;20031;-82
2022/08/22 15:44:01;;;;;;;2.08;1.00;;;;;;;;;;5135730;27;20042;-82
2022/08/22 15:46:38;;;;;;;1.88;0.57;;;;;;;;;;5101176;27;20081;-81
2022/08/22 15:49:10;;;;;;;2.20;0.95;;;;;;;;;;5102518;27;20038;-82
2022/08/22 15:51:57;;;;;;;1.52;0.70;;;;;;;;;;5118428;27;20118;-82
2022/08/22 15:54:53;;;;;;;2.10;0.95;;;;;;;;;;5101690;27;20053;-82